sensor_id;sensor_type;location;lat;lon;timestamp;P1;durP1;ratioP1;P2;durP2;ratioP2
13795;SDS011;40911;51.552;9.874;2023-04-19T00:05:44;7.25;;;5.80;;
13795;SDS011;40911;51.552;9.874;2023-04-19T00:08:07;6.50;;;5.70;;
13795;SDS011;40911;51.552;9.874;2023-04-19T00:10:28;6.78;;;5.38;;
13795;SDS011;40911;51.552;9.874;2023-04-19T00:15:11;7.78;;;5.57;;
13795;SDS011;40911;51.552;9.874;2023-04-19T00:17:33;5.85;;;5.20;;
13795;SDS011;40911;51.552;9.874;2023-04-19T00:19:55;6.68;;;5.00;;
13795;SDS011;40911;51.552;9.874;2023-04-19T00:24:39;7.20;;;4.88;;
13795;SDS011;40911;51.552;9.874;2023-04-19T00:27:01;6.25;;;5.30;;
13795;SDS011;40911;51.552;9.874;2023-04-19T00:29:22;5.53;;;4.80;;
13795;SDS011;40911;51.552;9.874;2023-04-19T00:31:44;5.45;;;4.80;;
13795;SDS011;40911;51.552;9.874;2023-04-19T00:34:06;4.90;;;4.25;;
13795;SDS011;40911;51.552;9.874;2023-04-19T00:36:27;5.40;;;4.45;;
13795;SDS011;40911;51.552;9.874;2023-04-19T00:38:51;6.47;;;4.70;;
13795;SDS011;40911;51.552;9.874;2023-04-19T00:41:12;4.90;;;4.38;;
13795;SDS011;40911;51.552;9.874;2023-04-19T00:43:34;5.53;;;4.47;;
13795;SDS011;40911;51.552;9.874;2023-04-19T00:45:55;6.25;;;4.75;;
13795;SDS011;40911;51.552;9.874;2023-04-19T00:48:17;5.60;;;4.22;;
13795;SDS011;40911;51.552;9.874;2023-04-19T00:50:39;8.20;;;5.47;;
13795;SDS011;40911;51.552;9.874;2023-04-19T00:53:00;6.25;;;5.38;;
13795;SDS011;40911;51.552;9.874;2023-04-19T00:55:24;6.00;;;5.00;;
13795;SDS011;40911;51.552;9.874;2023-04-19T00:57:46;7.43;;;5.22;;
13795;SDS011;40911;51.552;9.874;2023-04-19T01:00:08;6.25;;;5.45;;
13795;SDS011;40911;51.552;9.874;2023-04-19T01:02:31;5.95;;;5.03;;
13795;SDS011;40911;51.552;9.874;2023-04-19T01:04:52;5.78;;;5.15;;
13795;SDS011;40911;51.552;9.874;2023-04-19T01:07:14;8.00;;;5.57;;
13795;SDS011;40911;51.552;9.874;2023-04-19T01:09:38;5.97;;;5.07;;
13795;SDS011;40911;51.552;9.874;2023-04-19T01:12:02;8.18;;;5.88;;
13795;SDS011;40911;51.552;9.874;2023-04-19T01:14:24;7.25;;;5.63;;
13795;SDS011;40911;51.552;9.874;2023-04-19T01:16:45;6.30;;;5.65;;
13795;SDS011;40911;51.552;9.874;2023-04-19T01:19:09;7.80;;;5.40;;
13795;SDS011;40911;51.552;9.874;2023-04-19T01:23:54;10.15;;;6.03;;
13795;SDS011;40911;51.552;9.874;2023-04-19T01:26:15;9.98;;;6.15;;
13795;SDS011;40911;51.552;9.874;2023-04-19T01:30:58;7.75;;;5.75;;
13795;SDS011;40911;51.552;9.874;2023-04-19T01:33:20;7.80;;;5.57;;
13795;SDS011;40911;51.552;9.874;2023-04-19T01:38:03;6.72;;;5.75;;
13795;SDS011;40911;51.552;9.874;2023-04-19T01:40:26;7.78;;;5.95;;
13795;SDS011;40911;51.552;9.874;2023-04-19T01:42:48;8.50;;;5.60;;
13795;SDS011;40911;51.552;9.874;2023-04-19T01:45:10;8.68;;;5.85;;
13795;SDS011;40911;51.552;9.874;2023-04-19T01:47:32;7.60;;;5.57;;
13795;SDS011;40911;51.552;9.874;2023-04-19T01:49:53;7.40;;;5.57;;
13795;SDS011;40911;51.552;9.874;2023-04-19T01:52:15;6.30;;;5.38;;
13795;SDS011;40911;51.552;9.874;2023-04-19T01:54:36;6.88;;;6.18;;
13795;SDS011;40911;51.552;9.874;2023-04-19T01:56:59;7.43;;;5.90;;
13795;SDS011;40911;51.552;9.874;2023-04-19T01:59:21;6.88;;;5.53;;
13795;SDS011;40911;51.552;9.874;2023-04-19T02:01:43;8.75;;;5.88;;
13795;SDS011;40911;51.552;9.874;2023-04-19T02:04:05;8.13;;;6.18;;
13795;SDS011;40911;51.552;9.874;2023-04-19T02:06:27;7.55;;;6.00;;
13795;SDS011;40911;51.552;9.874;2023-04-19T02:08:49;6.40;;;5.80;;
13795;SDS011;40911;51.552;9.874;2023-04-19T02:11:11;7.03;;;5.80;;
13795;SDS011;40911;51.552;9.874;2023-04-19T02:13:35;8.15;;;6.60;;
13795;SDS011;40911;51.552;9.874;2023-04-19T02:15:57;6.78;;;5.95;;
13795;SDS011;40911;51.552;9.874;2023-04-19T02:18:20;9.23;;;7.15;;
13795;SDS011;40911;51.552;9.874;2023-04-19T02:20:43;6.80;;;6.03;;
13795;SDS011;40911;51.552;9.874;2023-04-19T02:23:04;7.28;;;6.35;;
13795;SDS011;40911;51.552;9.874;2023-04-19T02:27:47;9.93;;;6.82;;
13795;SDS011;40911;51.552;9.874;2023-04-19T02:30:11;7.50;;;6.45;;
13795;SDS011;40911;51.552;9.874;2023-04-19T02:32:33;10.18;;;7.38;;
13795;SDS011;40911;51.552;9.874;2023-04-19T02:34:55;10.68;;;6.85;;
13795;SDS011;40911;51.552;9.874;2023-04-19T02:37:17;8.88;;;6.63;;
13795;SDS011;40911;51.552;9.874;2023-04-19T02:39:38;9.38;;;7.03;;
13795;SDS011;40911;51.552;9.874;2023-04-19T02:42:01;8.85;;;6.47;;
13795;SDS011;40911;51.552;9.874;2023-04-19T02:44:23;8.68;;;6.35;;
13795;SDS011;40911;51.552;9.874;2023-04-19T02:46:48;8.10;;;6.07;;
13795;SDS011;40911;51.552;9.874;2023-04-19T02:49:10;7.47;;;6.03;;
13795;SDS011;40911;51.552;9.874;2023-04-19T02:51:31;8.70;;;6.15;;
13795;SDS011;40911;51.552;9.874;2023-04-19T02:53:53;8.00;;;6.22;;
13795;SDS011;40911;51.552;9.874;2023-04-19T02:56:15;9.05;;;5.70;;
13795;SDS011;40911;51.552;9.874;2023-04-19T02:58:38;7.80;;;5.75;;
13795;SDS011;40911;51.552;9.874;2023-04-19T03:00:59;7.18;;;5.70;;
13795;SDS011;40911;51.552;9.874;2023-04-19T03:03:22;7.78;;;5.80;;
13795;SDS011;40911;51.552;9.874;2023-04-19T03:05:44;6.20;;;5.03;;
13795;SDS011;40911;51.552;9.874;2023-04-19T03:08:05;7.80;;;5.13;;
13795;SDS011;40911;51.552;9.874;2023-04-19T03:10:27;6.15;;;5.15;;
13795;SDS011;40911;51.552;9.874;2023-04-19T03:12:49;6.88;;;5.30;;
13795;SDS011;40911;51.552;9.874;2023-04-19T03:15:10;7.68;;;5.00;;
13795;SDS011;40911;51.552;9.874;2023-04-19T03:17:32;8.77;;;4.85;;
13795;SDS011;40911;51.552;9.874;2023-04-19T03:19:55;6.28;;;4.95;;
13795;SDS011;40911;51.552;9.874;2023-04-19T03:22:16;5.53;;;4.70;;
13795;SDS011;40911;51.552;9.874;2023-04-19T03:24:38;8.70;;;5.43;;
13795;SDS011;40911;51.552;9.874;2023-04-19T03:26:59;8.63;;;4.95;;
13795;SDS011;40911;51.552;9.874;2023-04-19T03:29:22;7.38;;;4.78;;
13795;SDS011;40911;51.552;9.874;2023-04-19T03:31:44;6.22;;;5.13;;
13795;SDS011;40911;51.552;9.874;2023-04-19T03:34:05;7.80;;;5.03;;
13795;SDS011;40911;51.552;9.874;2023-04-19T03:36:28;6.30;;;5.22;;
13795;SDS011;40911;51.552;9.874;2023-04-19T03:38:51;8.10;;;4.97;;
13795;SDS011;40911;51.552;9.874;2023-04-19T03:41:19;8.55;;;5.00;;
13795;SDS011;40911;51.552;9.874;2023-04-19T03:43:41;6.78;;;5.18;;
13795;SDS011;40911;51.552;9.874;2023-04-19T03:46:03;6.07;;;5.18;;
13795;SDS011;40911;51.552;9.874;2023-04-19T03:48:24;6.60;;;5.15;;
13795;SDS011;40911;51.552;9.874;2023-04-19T03:50:47;5.95;;;4.80;;
13795;SDS011;40911;51.552;9.874;2023-04-19T03:53:09;7.85;;;4.70;;
13795;SDS011;40911;51.552;9.874;2023-04-19T03:55:31;6.85;;;5.00;;
13795;SDS011;40911;51.552;9.874;2023-04-19T03:57:53;8.52;;;5.28;;
13795;SDS011;40911;51.552;9.874;2023-04-19T04:00:14;5.70;;;5.07;;
13795;SDS011;40911;51.552;9.874;2023-04-19T04:02:36;6.15;;;5.38;;
13795;SDS011;40911;51.552;9.874;2023-04-19T04:04:58;10.10;;;5.13;;
13795;SDS011;40911;51.552;9.874;2023-04-19T04:07:20;6.10;;;4.85;;
13795;SDS011;40911;51.552;9.874;2023-04-19T04:09:45;7.10;;;5.10;;
13795;SDS011;40911;51.552;9.874;2023-04-19T04:12:07;5.70;;;4.43;;
13795;SDS011;40911;51.552;9.874;2023-04-19T04:14:29;10.02;;;5.10;;
13795;SDS011;40911;51.552;9.874;2023-04-19T04:16:50;8.13;;;4.85;;
13795;SDS011;40911;51.552;9.874;2023-04-19T04:19:12;6.00;;;4.97;;
13795;SDS011;40911;51.552;9.874;2023-04-19T04:21:33;8.85;;;4.90;;
13795;SDS011;40911;51.552;9.874;2023-04-19T04:23:55;6.80;;;4.95;;
13795;SDS011;40911;51.552;9.874;2023-04-19T04:26:19;6.57;;;5.07;;
13795;SDS011;40911;51.552;9.874;2023-04-19T04:28:40;6.25;;;5.30;;
13795;SDS011;40911;51.552;9.874;2023-04-19T04:31:02;8.05;;;5.57;;
13795;SDS011;40911;51.552;9.874;2023-04-19T04:33:25;5.88;;;4.90;;
13795;SDS011;40911;51.552;9.874;2023-04-19T04:35:47;7.90;;;4.80;;
13795;SDS011;40911;51.552;9.874;2023-04-19T04:38:08;8.00;;;4.85;;
13795;SDS011;40911;51.552;9.874;2023-04-19T04:40:30;5.32;;;4.75;;
13795;SDS011;40911;51.552;9.874;2023-04-19T04:42:53;9.63;;;4.60;;
13795;SDS011;40911;51.552;9.874;2023-04-19T04:45:15;7.60;;;5.00;;
13795;SDS011;40911;51.552;9.874;2023-04-19T04:47:38;5.53;;;4.78;;
13795;SDS011;40911;51.552;9.874;2023-04-19T04:49:59;6.00;;;4.80;;
13795;SDS011;40911;51.552;9.874;2023-04-19T04:54:42;7.22;;;4.70;;
13795;SDS011;40911;51.552;9.874;2023-04-19T04:57:04;5.05;;;4.55;;
13795;SDS011;40911;51.552;9.874;2023-04-19T04:59:27;5.30;;;4.80;;
13795;SDS011;40911;51.552;9.874;2023-04-19T05:01:49;5.95;;;4.90;;
13795;SDS011;40911;51.552;9.874;2023-04-19T05:04:10;5.50;;;4.57;;
13795;SDS011;40911;51.552;9.874;2023-04-19T05:06:32;6.40;;;4.80;;
13795;SDS011;40911;51.552;9.874;2023-04-19T05:08:53;6.95;;;4.50;;
13795;SDS011;40911;51.552;9.874;2023-04-19T05:11:15;7.38;;;4.90;;
13795;SDS011;40911;51.552;9.874;2023-04-19T05:13:36;8.50;;;5.05;;
13795;SDS011;40911;51.552;9.874;2023-04-19T05:15:59;6.47;;;5.25;;
13795;SDS011;40911;51.552;9.874;2023-04-19T05:18:21;5.22;;;4.43;;
13795;SDS011;40911;51.552;9.874;2023-04-19T05:23:05;5.97;;;4.60;;
13795;SDS011;40911;51.552;9.874;2023-04-19T05:25:30;4.53;;;4.10;;
13795;SDS011;40911;51.552;9.874;2023-04-19T05:27:51;8.13;;;5.15;;
13795;SDS011;40911;51.552;9.874;2023-04-19T05:30:13;4.75;;;4.25;;
13795;SDS011;40911;51.552;9.874;2023-04-19T05:32:36;6.15;;;4.82;;
13795;SDS011;40911;51.552;9.874;2023-04-19T05:34:58;7.22;;;4.63;;
13795;SDS011;40911;51.552;9.874;2023-04-19T05:37:19;5.20;;;4.80;;
13795;SDS011;40911;51.552;9.874;2023-04-19T05:39:43;6.95;;;4.50;;
13795;SDS011;40911;51.552;9.874;2023-04-19T05:42:04;8.65;;;4.47;;
13795;SDS011;40911;51.552;9.874;2023-04-19T05:46:47;8.27;;;4.30;;
13795;SDS011;40911;51.552;9.874;2023-04-19T05:49:10;6.65;;;4.50;;
13795;SDS011;40911;51.552;9.874;2023-04-19T05:51:32;6.70;;;4.40;;
13795;SDS011;40911;51.552;9.874;2023-04-19T05:53:53;6.13;;;4.55;;
13795;SDS011;40911;51.552;9.874;2023-04-19T05:56:15;8.10;;;4.63;;
13795;SDS011;40911;51.552;9.874;2023-04-19T05:58:37;5.05;;;3.90;;
13795;SDS011;40911;51.552;9.874;2023-04-19T06:00:58;4.60;;;4.10;;
13795;SDS011;40911;51.552;9.874;2023-04-19T06:03:20;5.47;;;4.15;;
13795;SDS011;40911;51.552;9.874;2023-04-19T06:05:43;5.95;;;4.30;;
13795;SDS011;40911;51.552;9.874;2023-04-19T06:08:05;5.00;;;4.03;;
13795;SDS011;40911;51.552;9.874;2023-04-19T06:10:28;5.90;;;5.00;;
13795;SDS011;40911;51.552;9.874;2023-04-19T06:12:50;4.20;;;3.80;;
13795;SDS011;40911;51.552;9.874;2023-04-19T06:15:11;5.40;;;4.32;;
13795;SDS011;40911;51.552;9.874;2023-04-19T06:17:33;4.78;;;4.18;;
13795;SDS011;40911;51.552;9.874;2023-04-19T06:19:54;6.28;;;4.25;;
13795;SDS011;40911;51.552;9.874;2023-04-19T06:22:17;5.38;;;4.40;;
13795;SDS011;40911;51.552;9.874;2023-04-19T06:24:39;5.55;;;4.35;;
13795;SDS011;40911;51.552;9.874;2023-04-19T06:27:01;4.80;;;4.18;;
13795;SDS011;40911;51.552;9.874;2023-04-19T06:29:22;6.38;;;4.25;;
13795;SDS011;40911;51.552;9.874;2023-04-19T06:31:44;4.47;;;4.07;;
13795;SDS011;40911;51.552;9.874;2023-04-19T06:34:06;10.70;;;4.47;;
13795;SDS011;40911;51.552;9.874;2023-04-19T06:36:27;5.85;;;4.03;;
13795;SDS011;40911;51.552;9.874;2023-04-19T06:38:50;6.90;;;4.25;;
13795;SDS011;40911;51.552;9.874;2023-04-19T06:41:12;5.10;;;4.20;;
13795;SDS011;40911;51.552;9.874;2023-04-19T06:43:33;6.05;;;4.25;;
13795;SDS011;40911;51.552;9.874;2023-04-19T06:45:58;5.95;;;3.85;;
13795;SDS011;40911;51.552;9.874;2023-04-19T06:48:20;5.90;;;4.15;;
13795;SDS011;40911;51.552;9.874;2023-04-19T06:50:41;8.25;;;4.07;;
13795;SDS011;40911;51.552;9.874;2023-04-19T06:53:03;5.72;;;3.92;;
13795;SDS011;40911;51.552;9.874;2023-04-19T06:55:26;6.72;;;4.28;;
13795;SDS011;40911;51.552;9.874;2023-04-19T06:57:47;6.07;;;4.07;;
13795;SDS011;40911;51.552;9.874;2023-04-19T07:00:09;6.03;;;4.40;;
13795;SDS011;40911;51.552;9.874;2023-04-19T07:02:32;6.05;;;4.10;;
13795;SDS011;40911;51.552;9.874;2023-04-19T07:04:54;4.35;;;4.05;;
13795;SDS011;40911;51.552;9.874;2023-04-19T07:07:16;5.55;;;4.25;;
13795;SDS011;40911;51.552;9.874;2023-04-19T07:09:37;3.88;;;3.58;;
13795;SDS011;40911;51.552;9.874;2023-04-19T07:12:00;4.28;;;3.88;;
13795;SDS011;40911;51.552;9.874;2023-04-19T07:14:22;4.95;;;3.88;;
13795;SDS011;40911;51.552;9.874;2023-04-19T07:16:43;5.85;;;3.80;;
13795;SDS011;40911;51.552;9.874;2023-04-19T07:19:05;6.63;;;4.18;;
13795;SDS011;40911;51.552;9.874;2023-04-19T07:21:27;5.22;;;3.92;;
13795;SDS011;40911;51.552;9.874;2023-04-19T07:23:52;4.70;;;4.20;;
13795;SDS011;40911;51.552;9.874;2023-04-19T07:26:13;6.47;;;3.85;;
13795;SDS011;40911;51.552;9.874;2023-04-19T07:30:59;5.05;;;3.97;;
13795;SDS011;40911;51.552;9.874;2023-04-19T07:35:43;4.53;;;3.60;;
13795;SDS011;40911;51.552;9.874;2023-04-19T07:40:26;4.88;;;4.13;;
13795;SDS011;40911;51.552;9.874;2023-04-19T07:42:48;6.78;;;3.90;;
13795;SDS011;40911;51.552;9.874;2023-04-19T07:47:33;6.15;;;3.80;;
13795;SDS011;40911;51.552;9.874;2023-04-19T07:49:55;8.35;;;3.97;;
13795;SDS011;40911;51.552;9.874;2023-04-19T07:52:16;7.28;;;3.50;;
13795;SDS011;40911;51.552;9.874;2023-04-19T07:54:38;5.07;;;3.78;;
13795;SDS011;40911;51.552;9.874;2023-04-19T07:57:00;4.68;;;3.70;;
13795;SDS011;40911;51.552;9.874;2023-04-19T07:59:22;5.20;;;3.60;;
13795;SDS011;40911;51.552;9.874;2023-04-19T08:01:45;13.13;;;3.60;;
13795;SDS011;40911;51.552;9.874;2023-04-19T08:04:06;3.60;;;3.30;;
13795;SDS011;40911;51.552;9.874;2023-04-19T08:06:28;4.07;;;3.22;;
13795;SDS011;40911;51.552;9.874;2023-04-19T08:08:49;4.40;;;3.20;;
13795;SDS011;40911;51.552;9.874;2023-04-19T08:11:11;6.07;;;3.30;;
13795;SDS011;40911;51.552;9.874;2023-04-19T08:13:33;6.28;;;2.88;;
13795;SDS011;40911;51.552;9.874;2023-04-19T08:15:55;5.78;;;3.10;;
13795;SDS011;40911;51.552;9.874;2023-04-19T08:18:18;4.20;;;3.42;;
13795;SDS011;40911;51.552;9.874;2023-04-19T08:20:40;3.60;;;2.95;;
13795;SDS011;40911;51.552;9.874;2023-04-19T08:23:02;4.05;;;2.95;;
13795;SDS011;40911;51.552;9.874;2023-04-19T08:25:25;6.57;;;3.38;;
13795;SDS011;40911;51.552;9.874;2023-04-19T08:27:47;3.25;;;2.95;;
13795;SDS011;40911;51.552;9.874;2023-04-19T08:30:09;5.43;;;3.15;;
13795;SDS011;40911;51.552;9.874;2023-04-19T08:32:31;3.95;;;3.05;;
13795;SDS011;40911;51.552;9.874;2023-04-19T08:34:54;3.28;;;2.70;;
13795;SDS011;40911;51.552;9.874;2023-04-19T08:37:16;6.82;;;2.90;;
13795;SDS011;40911;51.552;9.874;2023-04-19T08:39:37;5.40;;;3.20;;
13795;SDS011;40911;51.552;9.874;2023-04-19T08:42:00;5.20;;;2.90;;
13795;SDS011;40911;51.552;9.874;2023-04-19T08:44:25;2.97;;;2.67;;
13795;SDS011;40911;51.552;9.874;2023-04-19T08:46:47;4.88;;;3.05;;
13795;SDS011;40911;51.552;9.874;2023-04-19T08:49:10;7.30;;;3.08;;
13795;SDS011;40911;51.552;9.874;2023-04-19T08:51:34;4.68;;;3.10;;
13795;SDS011;40911;51.552;9.874;2023-04-19T08:53:57;4.15;;;3.00;;
13795;SDS011;40911;51.552;9.874;2023-04-19T08:56:19;4.65;;;2.83;;
13795;SDS011;40911;51.552;9.874;2023-04-19T08:58:41;3.20;;;2.80;;
13795;SDS011;40911;51.552;9.874;2023-04-19T09:01:04;3.03;;;2.70;;
13795;SDS011;40911;51.552;9.874;2023-04-19T09:03:27;3.00;;;2.63;;
13795;SDS011;40911;51.552;9.874;2023-04-19T09:05:48;2.67;;;2.47;;
13795;SDS011;40911;51.552;9.874;2023-04-19T09:08:21;5.07;;;3.40;;
13795;SDS011;40911;51.552;9.874;2023-04-19T09:10:51;2.70;;;2.30;;
13795;SDS011;40911;51.552;9.874;2023-04-19T09:13:14;4.30;;;2.60;;
13795;SDS011;40911;51.552;9.874;2023-04-19T09:15:39;3.63;;;2.70;;
13795;SDS011;40911;51.552;9.874;2023-04-19T09:18:04;4.07;;;2.83;;
13795;SDS011;40911;51.552;9.874;2023-04-19T09:20:34;4.40;;;2.70;;
13795;SDS011;40911;51.552;9.874;2023-04-19T09:23:01;3.92;;;2.67;;
13795;SDS011;40911;51.552;9.874;2023-04-19T09:25:25;3.85;;;2.80;;
13795;SDS011;40911;51.552;9.874;2023-04-19T09:27:47;4.57;;;3.15;;
13795;SDS011;40911;51.552;9.874;2023-04-19T09:30:08;7.05;;;2.85;;
13795;SDS011;40911;51.552;9.874;2023-04-19T09:32:43;3.90;;;2.65;;
13795;SDS011;40911;51.552;9.874;2023-04-19T09:35:07;4.35;;;2.78;;
13795;SDS011;40911;51.552;9.874;2023-04-19T09:37:28;6.38;;;2.63;;
13795;SDS011;40911;51.552;9.874;2023-04-19T09:39:50;3.08;;;2.65;;
13795;SDS011;40911;51.552;9.874;2023-04-19T09:42:13;5.90;;;2.90;;
13795;SDS011;40911;51.552;9.874;2023-04-19T09:44:36;4.35;;;2.65;;
13795;SDS011;40911;51.552;9.874;2023-04-19T09:46:58;4.88;;;2.75;;
13795;SDS011;40911;51.552;9.874;2023-04-19T09:49:21;4.20;;;2.53;;
13795;SDS011;40911;51.552;9.874;2023-04-19T09:51:43;5.20;;;2.70;;
13795;SDS011;40911;51.552;9.874;2023-04-19T09:54:06;4.78;;;2.80;;
13795;SDS011;40911;51.552;9.874;2023-04-19T09:56:28;10.88;;;4.93;;
13795;SDS011;40911;51.552;9.874;2023-04-19T10:01:13;4.63;;;3.30;;
13795;SDS011;40911;51.552;9.874;2023-04-19T10:03:36;6.93;;;3.35;;
13795;SDS011;40911;51.552;9.874;2023-04-19T10:05:58;5.25;;;3.35;;
13795;SDS011;40911;51.552;9.874;2023-04-19T10:10:41;4.32;;;3.13;;
13795;SDS011;40911;51.552;9.874;2023-04-19T10:13:09;5.43;;;2.92;;
13795;SDS011;40911;51.552;9.874;2023-04-19T10:15:34;3.63;;;2.85;;
13795;SDS011;40911;51.552;9.874;2023-04-19T10:17:57;3.78;;;3.13;;
13795;SDS011;40911;51.552;9.874;2023-04-19T10:20:20;5.50;;;3.22;;
13795;SDS011;40911;51.552;9.874;2023-04-19T10:22:45;5.65;;;3.15;;
13795;SDS011;40911;51.552;9.874;2023-04-19T10:25:06;6.75;;;3.30;;
13795;SDS011;40911;51.552;9.874;2023-04-19T10:27:29;6.70;;;3.30;;
13795;SDS011;40911;51.552;9.874;2023-04-19T10:29:55;7.85;;;3.33;;
13795;SDS011;40911;51.552;9.874;2023-04-19T10:32:19;4.45;;;3.22;;
13795;SDS011;40911;51.552;9.874;2023-04-19T10:34:41;3.50;;;3.13;;
13795;SDS011;40911;51.552;9.874;2023-04-19T10:39:40;4.85;;;3.30;;
13795;SDS011;40911;51.552;9.874;2023-04-19T10:42:03;9.40;;;3.40;;
13795;SDS011;40911;51.552;9.874;2023-04-19T10:44:25;5.50;;;3.40;;
13795;SDS011;40911;51.552;9.874;2023-04-19T10:46:46;6.93;;;3.25;;
13795;SDS011;40911;51.552;9.874;2023-04-19T10:49:09;3.90;;;3.42;;
13795;SDS011;40911;51.552;9.874;2023-04-19T10:51:32;7.30;;;3.58;;
13795;SDS011;40911;51.552;9.874;2023-04-19T10:53:56;6.30;;;3.33;;
13795;SDS011;40911;51.552;9.874;2023-04-19T10:56:19;4.82;;;3.67;;
13795;SDS011;40911;51.552;9.874;2023-04-19T11:01:34;4.53;;;3.30;;
13795;SDS011;40911;51.552;9.874;2023-04-19T11:03:58;5.18;;;3.22;;
13795;SDS011;40911;51.552;9.874;2023-04-19T11:06:21;6.85;;;3.38;;
13795;SDS011;40911;51.552;9.874;2023-04-19T11:08:46;5.18;;;3.40;;
13795;SDS011;40911;51.552;9.874;2023-04-19T11:11:07;5.13;;;3.40;;
13795;SDS011;40911;51.552;9.874;2023-04-19T11:13:30;6.63;;;3.00;;
13795;SDS011;40911;51.552;9.874;2023-04-19T11:15:53;7.38;;;3.20;;
13795;SDS011;40911;51.552;9.874;2023-04-19T11:18:18;5.10;;;3.30;;
13795;SDS011;40911;51.552;9.874;2023-04-19T11:20:41;5.85;;;3.25;;
13795;SDS011;40911;51.552;9.874;2023-04-19T11:23:05;7.93;;;3.50;;
13795;SDS011;40911;51.552;9.874;2023-04-19T11:25:36;4.13;;;3.08;;
13795;SDS011;40911;51.552;9.874;2023-04-19T11:27:57;5.72;;;3.50;;
13795;SDS011;40911;51.552;9.874;2023-04-19T11:30:21;4.07;;;3.20;;
13795;SDS011;40911;51.552;9.874;2023-04-19T11:32:48;3.90;;;3.17;;
13795;SDS011;40911;51.552;9.874;2023-04-19T11:35:11;4.35;;;3.35;;
13795;SDS011;40911;51.552;9.874;2023-04-19T11:37:33;3.80;;;3.17;;
13795;SDS011;40911;51.552;9.874;2023-04-19T11:39:57;4.40;;;3.35;;
13795;SDS011;40911;51.552;9.874;2023-04-19T11:42:18;4.40;;;3.28;;
13795;SDS011;40911;51.552;9.874;2023-04-19T11:44:47;3.55;;;3.08;;
13795;SDS011;40911;51.552;9.874;2023-04-19T11:47:09;4.30;;;2.80;;
13795;SDS011;40911;51.552;9.874;2023-04-19T11:49:31;3.25;;;2.95;;
13795;SDS011;40911;51.552;9.874;2023-04-19T11:51:55;4.40;;;2.50;;
13795;SDS011;40911;51.552;9.874;2023-04-19T11:54:17;6.20;;;3.17;;
13795;SDS011;40911;51.552;9.874;2023-04-19T11:59:22;6.05;;;2.80;;
13795;SDS011;40911;51.552;9.874;2023-04-19T12:01:43;7.20;;;2.80;;
13795;SDS011;40911;51.552;9.874;2023-04-19T12:04:05;3.53;;;2.60;;
13795;SDS011;40911;51.552;9.874;2023-04-19T12:08:51;5.82;;;2.67;;
13795;SDS011;40911;51.552;9.874;2023-04-19T12:11:14;5.38;;;2.80;;
13795;SDS011;40911;51.552;9.874;2023-04-19T12:13:39;3.90;;;2.50;;
13795;SDS011;40911;51.552;9.874;2023-04-19T12:16:01;4.65;;;2.80;;
13795;SDS011;40911;51.552;9.874;2023-04-19T12:20:44;3.70;;;2.80;;
13795;SDS011;40911;51.552;9.874;2023-04-19T12:23:07;4.22;;;2.63;;
13795;SDS011;40911;51.552;9.874;2023-04-19T12:25:30;4.35;;;2.70;;
13795;SDS011;40911;51.552;9.874;2023-04-19T12:27:52;2.70;;;2.45;;
13795;SDS011;40911;51.552;9.874;2023-04-19T12:32:37;4.60;;;2.78;;
13795;SDS011;40911;51.552;9.874;2023-04-19T12:34:58;4.57;;;2.97;;
13795;SDS011;40911;51.552;9.874;2023-04-19T12:37:20;3.25;;;2.95;;
13795;SDS011;40911;51.552;9.874;2023-04-19T12:39:41;4.57;;;2.90;;
13795;SDS011;40911;51.552;9.874;2023-04-19T12:42:03;3.63;;;2.83;;
13795;SDS011;40911;51.552;9.874;2023-04-19T12:44:26;3.13;;;2.75;;
13795;SDS011;40911;51.552;9.874;2023-04-19T12:46:48;4.95;;;2.90;;
13795;SDS011;40911;51.552;9.874;2023-04-19T12:49:10;4.55;;;3.13;;
13795;SDS011;40911;51.552;9.874;2023-04-19T12:51:32;4.78;;;3.13;;
13795;SDS011;40911;51.552;9.874;2023-04-19T12:53:55;6.15;;;2.80;;
13795;SDS011;40911;51.552;9.874;2023-04-19T12:56:16;4.72;;;2.97;;
13795;SDS011;40911;51.552;9.874;2023-04-19T12:58:38;3.95;;;3.25;;
13795;SDS011;40911;51.552;9.874;2023-04-19T13:01:00;3.40;;;3.10;;
13795;SDS011;40911;51.552;9.874;2023-04-19T13:03:23;3.33;;;3.00;;
13795;SDS011;40911;51.552;9.874;2023-04-19T13:05:44;7.85;;;3.17;;
13795;SDS011;40911;51.552;9.874;2023-04-19T13:10:27;3.45;;;3.10;;
13795;SDS011;40911;51.552;9.874;2023-04-19T13:12:49;4.05;;;2.95;;
13795;SDS011;40911;51.552;9.874;2023-04-19T13:15:11;4.53;;;2.63;;
13795;SDS011;40911;51.552;9.874;2023-04-19T13:17:32;4.93;;;2.75;;
13795;SDS011;40911;51.552;9.874;2023-04-19T13:19:57;7.18;;;2.95;;
13795;SDS011;40911;51.552;9.874;2023-04-19T13:22:19;4.25;;;2.80;;
13795;SDS011;40911;51.552;9.874;2023-04-19T13:24:41;5.95;;;2.70;;
13795;SDS011;40911;51.552;9.874;2023-04-19T13:27:03;3.85;;;3.17;;
13795;SDS011;40911;51.552;9.874;2023-04-19T13:31:46;5.72;;;2.42;;
13795;SDS011;40911;51.552;9.874;2023-04-19T13:34:08;4.70;;;2.28;;
13795;SDS011;40911;51.552;9.874;2023-04-19T13:36:31;7.63;;;3.00;;
13795;SDS011;40911;51.552;9.874;2023-04-19T13:38:53;6.28;;;3.17;;
13795;SDS011;40911;51.552;9.874;2023-04-19T13:41:14;6.13;;;3.28;;
13795;SDS011;40911;51.552;9.874;2023-04-19T13:43:36;7.97;;;2.70;;
13795;SDS011;40911;51.552;9.874;2023-04-19T13:48:19;4.15;;;3.03;;
13795;SDS011;40911;51.552;9.874;2023-04-19T13:53:03;3.92;;;3.00;;
13795;SDS011;40911;51.552;9.874;2023-04-19T13:55:25;4.00;;;3.60;;
13795;SDS011;40911;51.552;9.874;2023-04-19T13:57:47;5.53;;;3.83;;
13795;SDS011;40911;51.552;9.874;2023-04-19T14:00:09;3.83;;;2.92;;
13795;SDS011;40911;51.552;9.874;2023-04-19T14:02:31;5.03;;;2.92;;
13795;SDS011;40911;51.552;9.874;2023-04-19T14:04:53;6.20;;;3.42;;
13795;SDS011;40911;51.552;9.874;2023-04-19T14:07:17;3.85;;;2.95;;
13795;SDS011;40911;51.552;9.874;2023-04-19T14:09:41;3.80;;;3.00;;
13795;SDS011;40911;51.552;9.874;2023-04-19T14:12:03;3.33;;;2.65;;
13795;SDS011;40911;51.552;9.874;2023-04-19T14:14:27;5.97;;;3.05;;
13795;SDS011;40911;51.552;9.874;2023-04-19T14:16:49;3.35;;;3.05;;
13795;SDS011;40911;51.552;9.874;2023-04-19T14:19:10;5.75;;;3.40;;
13795;SDS011;40911;51.552;9.874;2023-04-19T14:21:32;5.78;;;3.22;;
13795;SDS011;40911;51.552;9.874;2023-04-19T14:23:54;2.83;;;2.60;;
13795;SDS011;40911;51.552;9.874;2023-04-19T14:28:38;2.80;;;2.50;;
13795;SDS011;40911;51.552;9.874;2023-04-19T14:31:00;3.80;;;2.63;;
13795;SDS011;40911;51.552;9.874;2023-04-19T14:33:21;3.67;;;2.70;;
13795;SDS011;40911;51.552;9.874;2023-04-19T14:35:43;3.03;;;2.63;;
13795;SDS011;40911;51.552;9.874;2023-04-19T14:38:04;3.17;;;2.65;;
13795;SDS011;40911;51.552;9.874;2023-04-19T14:40:26;5.00;;;3.15;;
13795;SDS011;40911;51.552;9.874;2023-04-19T14:42:49;3.30;;;3.00;;
13795;SDS011;40911;51.552;9.874;2023-04-19T14:45:10;4.88;;;2.72;;
13795;SDS011;40911;51.552;9.874;2023-04-19T14:47:32;2.90;;;2.60;;
13795;SDS011;40911;51.552;9.874;2023-04-19T14:49:54;4.88;;;3.35;;
13795;SDS011;40911;51.552;9.874;2023-04-19T14:54:37;3.55;;;2.33;;
13795;SDS011;40911;51.552;9.874;2023-04-19T14:56:59;3.20;;;2.63;;
13795;SDS011;40911;51.552;9.874;2023-04-19T15:01:43;5.72;;;2.58;;
13795;SDS011;40911;51.552;9.874;2023-04-19T15:04:05;3.03;;;2.72;;
13795;SDS011;40911;51.552;9.874;2023-04-19T15:06:27;4.85;;;2.80;;
13795;SDS011;40911;51.552;9.874;2023-04-19T15:08:49;4.55;;;2.80;;
13795;SDS011;40911;51.552;9.874;2023-04-19T15:11:11;4.28;;;3.05;;
13795;SDS011;40911;51.552;9.874;2023-04-19T15:13:32;4.55;;;3.53;;
13795;SDS011;40911;51.552;9.874;2023-04-19T15:15:56;3.88;;;3.25;;
13795;SDS011;40911;51.552;9.874;2023-04-19T15:18:17;4.70;;;3.28;;
13795;SDS011;40911;51.552;9.874;2023-04-19T15:20:40;5.43;;;3.25;;
13795;SDS011;40911;51.552;9.874;2023-04-19T15:23:01;6.88;;;2.90;;
13795;SDS011;40911;51.552;9.874;2023-04-19T15:25:23;5.47;;;3.22;;
13795;SDS011;40911;51.552;9.874;2023-04-19T15:27:45;5.28;;;2.67;;
13795;SDS011;40911;51.552;9.874;2023-04-19T15:30:06;4.90;;;3.03;;